Other Surface Observations
Issued by NWS Great Falls, MT

Home | Current Version | Previous Version | Text Only | Print | Product List | Glossary On
Versions: 1 2 3 4 5 6 7 8 9 10 11 12 13 14 15 16 17 18 19 20 21 22 23 24 25 26 27 28 29 30 31 32 33 34 35 36 37 38 39 40 41 42 43 44 45 46 47 48 49 50
000
SXUS55 KTFX 210444
OSOTFX
AREA AWOS OBSERVATIONS
NATIONAL WEATHER SERVICE GREAT FALLS MT
1044 PM MDT THU JUL 20 2017

METAR KPWD 210445Z AUTO 10011G14KT 10SM 22/13 A2981 RMK PLENTYWOOD
METAR KPO1 210445Z AUTO 08010G15KT 10SM 24/12 A2976 RMK POPLAR
METAR K1S3 210445Z AUTO 00000KT 10SM 29/08 A2976 RMK FORSYTH
METAR KS71 210445Z AUTO 00000KT 10SM 26/10 A2976 RMK CHINOOK
METAR K3U3 210445Z AUTO 07006KT 10SM 19/03 A3007 RMK ANACONDA
METAR K6S5 210445Z AUTO 00000KT 10SM 21/06 A3003 RMK HAMILTON
METAR KS59 210445Z AUTO 00000KT 10SM 18/M01 A2998 RMK LIBBY
METAR K88M 210445Z AUTO 10SM 21/03 A2998 RMK EUREKA



USA.gov is the U.S. government's official web portal to all federal, state and local government web resources and services.